sensor_id;sensor_type;location;lat;lon;timestamp;pressure;altitude;pressure_sealevel;temperature;humidity
65173;BME280;51758;52.218;5.172;2022-12-20T00:01:50;101087.81;;;8.61;100.00
65173;BME280;51758;52.218;5.172;2022-12-20T00:04:18;101094.66;;;8.70;100.00
65173;BME280;51758;52.218;5.172;2022-12-20T00:06:46;101093.34;;;8.74;100.00
65173;BME280;51758;52.218;5.172;2022-12-20T00:09:13;101101.00;;;8.76;100.00
65173;BME280;51758;52.218;5.172;2022-12-20T00:11:41;101095.63;;;8.69;100.00
65173;BME280;51758;52.218;5.172;2022-12-20T00:14:09;101094.66;;;8.70;100.00
65173;BME280;51758;52.218;5.172;2022-12-20T00:16:38;101087.50;;;8.72;100.00
65173;BME280;51758;52.218;5.172;2022-12-20T00:19:06;101101.34;;;8.73;100.00
65173;BME280;51758;52.218;5.172;2022-12-20T00:21:34;101098.56;;;8.74;100.00
65173;BME280;51758;52.218;5.172;2022-12-20T00:24:03;101092.56;;;8.74;100.00
65173;BME280;51758;52.218;5.172;2022-12-20T00:26:32;101088.47;;;8.79;100.00
65173;BME280;51758;52.218;5.172;2022-12-20T00:29:02;101059.50;;;8.66;100.00
65173;BME280;51758;52.218;5.172;2022-12-20T00:31:30;101083.78;;;8.83;100.00
65173;BME280;51758;52.218;5.172;2022-12-20T00:34:00;101088.84;;;8.84;100.00
65173;BME280;51758;52.218;5.172;2022-12-20T00:36:29;101080.03;;;8.93;100.00
65173;BME280;51758;52.218;5.172;2022-12-20T00:38:58;101070.59;;;8.92;100.00
65173;BME280;51758;52.218;5.172;2022-12-20T00:41:27;101078.25;;;8.94;100.00
65173;BME280;51758;52.218;5.172;2022-12-20T00:43:55;101085.91;;;8.95;100.00
65173;BME280;51758;52.218;5.172;2022-12-20T00:46:23;101093.06;;;9.02;100.00
65173;BME280;51758;52.218;5.172;2022-12-20T00:48:51;101090.16;;;8.96;100.00
65173;BME280;51758;52.218;5.172;2022-12-20T00:51:23;101083.31;;;9.04;100.00
65173;BME280;51758;52.218;5.172;2022-12-20T00:53:51;101097.81;;;9.06;100.00
65173;BME280;51758;52.218;5.172;2022-12-20T00:56:20;101083.31;;;9.04;100.00
65173;BME280;51758;52.218;5.172;2022-12-20T00:58:48;101081.50;;;9.12;100.00
65173;BME280;51758;52.218;5.172;2022-12-20T01:01:18;101074.22;;;9.24;100.00
65173;BME280;51758;52.218;5.172;2022-12-20T01:03:47;101076.47;;;9.27;100.00
65173;BME280;51758;52.218;5.172;2022-12-20T01:06:16;101075.81;;;9.25;100.00
65173;BME280;51758;52.218;5.172;2022-12-20T01:08:45;101041.81;;;9.10;100.00
65173;BME280;51758;52.218;5.172;2022-12-20T01:11:15;101061.50;;;9.21;100.00
65173;BME280;51758;52.218;5.172;2022-12-20T01:13:46;101065.06;;;9.28;100.00
65173;BME280;51758;52.218;5.172;2022-12-20T01:16:16;101065.38;;;9.25;100.00
65173;BME280;51758;52.218;5.172;2022-12-20T01:18:44;101054.81;;;9.18;100.00
65173;BME280;51758;52.218;5.172;2022-12-20T01:21:14;101055.63;;;9.19;100.00
65173;BME280;51758;52.218;5.172;2022-12-20T01:23:43;101057.91;;;9.14;100.00
65173;BME280;51758;52.218;5.172;2022-12-20T01:26:13;101061.84;;;9.10;100.00
65173;BME280;51758;52.218;5.172;2022-12-20T01:28:43;101049.75;;;9.01;100.00
65173;BME280;51758;52.218;5.172;2022-12-20T01:31:13;101057.25;;;9.04;100.00
65173;BME280;51758;52.218;5.172;2022-12-20T01:33:42;101048.47;;;8.96;100.00
65173;BME280;51758;52.218;5.172;2022-12-20T01:36:11;101045.38;;;9.01;100.00
65173;BME280;51758;52.218;5.172;2022-12-20T01:38:40;101034.81;;;8.94;100.00
65173;BME280;51758;52.218;5.172;2022-12-20T01:41:15;101033.34;;;8.92;100.00
65173;BME280;51758;52.218;5.172;2022-12-20T01:43:46;101017.72;;;8.92;100.00
65173;BME280;51758;52.218;5.172;2022-12-20T01:46:14;101021.78;;;8.94;100.00
65173;BME280;51758;52.218;5.172;2022-12-20T01:48:44;101024.41;;;8.94;100.00
65173;BME280;51758;52.218;5.172;2022-12-20T01:51:14;101026.03;;;8.95;100.00
65173;BME280;51758;52.218;5.172;2022-12-20T01:53:43;101006.16;;;8.94;100.00
65173;BME280;51758;52.218;5.172;2022-12-20T01:56:11;101004.84;;;8.90;100.00
65173;BME280;51758;52.218;5.172;2022-12-20T01:58:41;101012.19;;;8.95;100.00
65173;BME280;51758;52.218;5.172;2022-12-20T02:01:09;100998.84;;;8.98;100.00
65173;BME280;51758;52.218;5.172;2022-12-20T02:03:36;100995.75;;;8.94;100.00
65173;BME280;51758;52.218;5.172;2022-12-20T02:06:17;100997.22;;;8.97;100.00
65173;BME280;51758;52.218;5.172;2022-12-20T02:08:47;100992.47;;;9.01;100.00
65173;BME280;51758;52.218;5.172;2022-12-20T02:11:27;100999.47;;;9.00;100.00
65173;BME280;51758;52.218;5.172;2022-12-20T02:14:07;100987.13;;;8.94;100.00
65173;BME280;51758;52.218;5.172;2022-12-20T02:16:42;100981.25;;;8.92;100.00
65173;BME280;51758;52.218;5.172;2022-12-20T02:19:22;100972.31;;;8.94;100.00
65173;BME280;51758;52.218;5.172;2022-12-20T02:22:07;100976.84;;;9.01;100.00
65173;BME280;51758;52.218;5.172;2022-12-20T02:24:56;100975.41;;;9.06;100.00
65173;BME280;51758;52.218;5.172;2022-12-20T02:27:52;100977.81;;;8.99;100.00
65173;BME280;51758;52.218;5.172;2022-12-20T02:30:27;100981.09;;;9.02;100.00
65173;BME280;51758;52.218;5.172;2022-12-20T02:32:58;100973.63;;;8.98;100.00
65173;BME280;51758;52.218;5.172;2022-12-20T02:35:28;100974.75;;;9.04;100.00
65173;BME280;51758;52.218;5.172;2022-12-20T02:37:58;100978.31;;;9.03;100.00
65173;BME280;51758;52.218;5.172;2022-12-20T02:40:30;100978.63;;;9.00;100.00
65173;BME280;51758;52.218;5.172;2022-12-20T02:43:00;100965.97;;;8.97;100.00
65173;BME280;51758;52.218;5.172;2022-12-20T02:45:33;100966.44;;;8.92;100.00
65173;BME280;51758;52.218;5.172;2022-12-20T02:48:04;100955.41;;;8.98;100.00
65173;BME280;51758;52.218;5.172;2022-12-20T02:50:35;100964.81;;;8.99;100.00
65173;BME280;51758;52.218;5.172;2022-12-20T02:53:05;100976.03;;;9.08;100.00
65173;BME280;51758;52.218;5.172;2022-12-20T02:55:45;100976.84;;;9.09;100.00
65173;BME280;51758;52.218;5.172;2022-12-20T02:58:22;100971.66;;;9.09;100.00
65173;BME280;51758;52.218;5.172;2022-12-20T03:00:58;100952.78;;;9.07;100.00
65173;BME280;51758;52.218;5.172;2022-12-20T03:03:30;100957.00;;;9.08;100.00
65173;BME280;51758;52.218;5.172;2022-12-20T03:05:59;100947.91;;;8.95;100.00
65173;BME280;51758;52.218;5.172;2022-12-20T03:08:26;100956.66;;;9.03;100.00
65173;BME280;51758;52.218;5.172;2022-12-20T03:10:54;100949.69;;;8.95;100.00
65173;BME280;51758;52.218;5.172;2022-12-20T03:13:23;100963.19;;;9.07;100.00
65173;BME280;51758;52.218;5.172;2022-12-20T03:15:50;100967.59;;;9.06;100.00
65173;BME280;51758;52.218;5.172;2022-12-20T03:18:20;100953.09;;;9.04;100.00
65173;BME280;51758;52.218;5.172;2022-12-20T03:20:47;100948.06;;;9.10;100.00
65173;BME280;51758;52.218;5.172;2022-12-20T03:23:15;100953.72;;;9.14;100.00
65173;BME280;51758;52.218;5.172;2022-12-20T03:25:43;100963.81;;;9.17;100.00
65173;BME280;51758;52.218;5.172;2022-12-20T03:28:10;100959.75;;;9.14;100.00
65173;BME280;51758;52.218;5.172;2022-12-20T03:30:38;100963.16;;;9.15;100.00
65173;BME280;51758;52.218;5.172;2022-12-20T03:33:06;100954.69;;;9.13;100.00
65173;BME280;51758;52.218;5.172;2022-12-20T03:35:35;100958.47;;;9.10;100.00
65173;BME280;51758;52.218;5.172;2022-12-20T03:38:03;100959.28;;;9.11;100.00
65173;BME280;51758;52.218;5.172;2022-12-20T03:40:31;100958.78;;;9.15;100.00
65173;BME280;51758;52.218;5.172;2022-12-20T03:42:58;100950.94;;;9.15;100.00
65173;BME280;51758;52.218;5.172;2022-12-20T03:45:26;100957.16;;;9.22;100.00
65173;BME280;51758;52.218;5.172;2022-12-20T03:47:54;100946.72;;;9.22;100.00
65173;BME280;51758;52.218;5.172;2022-12-20T03:50:21;100931.25;;;9.21;100.00
65173;BME280;51758;52.218;5.172;2022-12-20T03:52:50;100936.94;;;9.16;100.00
65173;BME280;51758;52.218;5.172;2022-12-20T03:55:18;100934.03;;;9.19;100.00
65173;BME280;51758;52.218;5.172;2022-12-20T03:57:46;100922.47;;;9.22;100.00
65173;BME280;51758;52.218;5.172;2022-12-20T04:00:15;100925.03;;;9.30;100.00
65173;BME280;51758;52.218;5.172;2022-12-20T04:02:43;100933.19;;;9.27;100.00
65173;BME280;51758;52.218;5.172;2022-12-20T04:05:11;100931.75;;;9.24;100.00
65173;BME280;51758;52.218;5.172;2022-12-20T04:07:38;100935.78;;;9.27;100.00
65173;BME280;51758;52.218;5.172;2022-12-20T04:10:08;100932.03;;;9.29;100.00
65173;BME280;51758;52.218;5.172;2022-12-20T04:12:36;100928.94;;;9.26;100.00
65173;BME280;51758;52.218;5.172;2022-12-20T04:15:04;100927.16;;;9.26;100.00
65173;BME280;51758;52.218;5.172;2022-12-20T04:17:33;100931.53;;;9.34;100.00
65173;BME280;51758;52.218;5.172;2022-12-20T04:20:01;100926.00;;;9.37;100.00
65173;BME280;51758;52.218;5.172;2022-12-20T04:22:44;100928.09;;;9.42;100.00
65173;BME280;51758;52.218;5.172;2022-12-20T04:25:15;100919.44;;;9.49;100.00
65173;BME280;51758;52.218;5.172;2022-12-20T04:27:43;100926.44;;;9.49;100.00
65173;BME280;51758;52.218;5.172;2022-12-20T04:30:12;100912.94;;;9.45;100.00
65173;BME280;51758;52.218;5.172;2022-12-20T04:32:40;100907.22;;;9.50;100.00
65173;BME280;51758;52.218;5.172;2022-12-20T04:35:08;100911.91;;;9.54;100.00
65173;BME280;51758;52.218;5.172;2022-12-20T04:37:36;100913.06;;;9.60;100.00
65173;BME280;51758;52.218;5.172;2022-12-20T04:40:05;100907.34;;;9.56;100.00
65173;BME280;51758;52.218;5.172;2022-12-20T04:42:34;100916.63;;;9.59;100.00
65173;BME280;51758;52.218;5.172;2022-12-20T04:45:02;100918.56;;;9.65;100.00
65173;BME280;51758;52.218;5.172;2022-12-20T04:47:30;100913.16;;;9.66;100.00
65173;BME280;51758;52.218;5.172;2022-12-20T04:49:58;100902.41;;;9.69;100.00
65173;BME280;51758;52.218;5.172;2022-12-20T04:52:25;100911.16;;;9.77;100.00
65173;BME280;51758;52.218;5.172;2022-12-20T04:55:14;100909.38;;;9.77;100.00
65173;BME280;51758;52.218;5.172;2022-12-20T04:57:43;100910.19;;;9.78;100.00
65173;BME280;51758;52.218;5.172;2022-12-20T05:00:11;100911.16;;;9.77;100.00
65173;BME280;51758;52.218;5.172;2022-12-20T05:02:40;100905.66;;;9.72;100.00
65173;BME280;51758;52.218;5.172;2022-12-20T05:05:09;100895.63;;;9.60;100.00
65173;BME280;51758;52.218;5.172;2022-12-20T05:07:36;100898.66;;;9.72;100.00
65173;BME280;51758;52.218;5.172;2022-12-20T05:10:05;100903.59;;;9.59;100.00
65173;BME280;51758;52.218;5.172;2022-12-20T05:12:33;100900.84;;;9.52;100.00
65173;BME280;51758;52.218;5.172;2022-12-20T05:15:02;100892.38;;;9.50;100.00
65173;BME280;51758;52.218;5.172;2022-12-20T05:17:30;100842.97;;;9.26;100.00
65173;BME280;51758;52.218;5.172;2022-12-20T05:19:58;100882.66;;;9.44;100.00
65173;BME280;51758;52.218;5.172;2022-12-20T05:22:25;100875.47;;;9.46;100.00
65173;BME280;51758;52.218;5.172;2022-12-20T05:25:11;100863.59;;;9.44;100.00
65173;BME280;51758;52.218;5.172;2022-12-20T05:27:57;100857.56;;;9.43;100.00
65173;BME280;51758;52.218;5.172;2022-12-20T05:30:26;100851.88;;;9.40;100.00
65173;BME280;51758;52.218;5.172;2022-12-20T05:32:54;100852.53;;;9.42;100.00
65173;BME280;51758;52.218;5.172;2022-12-20T05:35:21;100847.66;;;9.39;100.00
65173;BME280;51758;52.218;5.172;2022-12-20T05:37:49;100848.44;;;9.47;100.00
65173;BME280;51758;52.218;5.172;2022-12-20T05:40:17;100848.78;;;9.44;100.00
65173;BME280;51758;52.218;5.172;2022-12-20T05:42:45;100833.94;;;9.45;100.00
65173;BME280;51758;52.218;5.172;2022-12-20T05:45:12;100830.38;;;9.46;100.00
65173;BME280;51758;52.218;5.172;2022-12-20T05:47:42;100820.59;;;9.48;100.00
65173;BME280;51758;52.218;5.172;2022-12-20T05:50:10;100822.00;;;9.50;100.00
65173;BME280;51758;52.218;5.172;2022-12-20T05:52:44;100819.06;;;9.53;100.00
65173;BME280;51758;52.218;5.172;2022-12-20T05:55:12;100813.84;;;9.53;100.00
65173;BME280;51758;52.218;5.172;2022-12-20T05:57:40;100819.41;;;9.50;100.00
65173;BME280;51758;52.218;5.172;2022-12-20T06:00:09;100822.81;;;9.59;100.00
65173;BME280;51758;52.218;5.172;2022-12-20T06:02:37;100811.91;;;9.55;100.00
65173;BME280;51758;52.218;5.172;2022-12-20T06:05:07;100819.66;;;9.63;100.00
65173;BME280;51758;52.218;5.172;2022-12-20T06:07:35;100804.97;;;9.70;100.00
65173;BME280;51758;52.218;5.172;2022-12-20T06:10:03;100813.94;;;9.68;100.00
65173;BME280;51758;52.218;5.172;2022-12-20T06:12:31;100815.91;;;9.66;100.00
65173;BME280;51758;52.218;5.172;2022-12-20T06:15:00;100826.97;;;9.68;100.00
65173;BME280;51758;52.218;5.172;2022-12-20T06:17:28;100821.44;;;9.71;100.00
65173;BME280;51758;52.218;5.172;2022-12-20T06:19:56;100828.44;;;9.70;100.00
65173;BME280;51758;52.218;5.172;2022-12-20T06:22:25;100830.97;;;9.79;100.00
65173;BME280;51758;52.218;5.172;2022-12-20T06:24:54;100819.09;;;9.76;100.00
65173;BME280;51758;52.218;5.172;2022-12-20T06:27:21;100827.22;;;9.81;100.00
65173;BME280;51758;52.218;5.172;2022-12-20T06:29:49;100815.63;;;9.84;100.00
65173;BME280;51758;52.218;5.172;2022-12-20T06:32:20;100823.56;;;9.90;100.00
65173;BME280;51758;52.218;5.172;2022-12-20T06:34:50;100823.34;;;10.00;100.00
65173;BME280;51758;52.218;5.172;2022-12-20T06:37:18;100820.09;;;9.98;100.00
65173;BME280;51758;52.218;5.172;2022-12-20T06:39:47;100814.50;;;10.01;100.00
65173;BME280;51758;52.218;5.172;2022-12-20T06:42:15;100815.16;;;10.03;100.00
65173;BME280;51758;52.218;5.172;2022-12-20T06:44:43;100822.53;;;9.99;100.00
65173;BME280;51758;52.218;5.172;2022-12-20T06:47:11;100825.97;;;10.00;100.00
65173;BME280;51758;52.218;5.172;2022-12-20T06:49:39;100833.16;;;9.98;100.00
65173;BME280;51758;52.218;5.172;2022-12-20T06:52:06;100825.31;;;9.98;100.00
65173;BME280;51758;52.218;5.172;2022-12-20T06:54:34;100832.25;;;10.05;100.00
65173;BME280;51758;52.218;5.172;2022-12-20T06:57:04;100827.13;;;9.97;100.00
65173;BME280;51758;52.218;5.172;2022-12-20T06:59:32;100827.47;;;9.94;100.00
65173;BME280;51758;52.218;5.172;2022-12-20T07:02:00;100827.47;;;9.94;100.00
65173;BME280;51758;52.218;5.172;2022-12-20T07:04:30;100806.69;;;9.78;100.00
65173;BME280;51758;52.218;5.172;2022-12-20T07:06:58;100833.81;;;9.92;100.00
65173;BME280;51758;52.218;5.172;2022-12-20T07:09:26;100825.31;;;9.98;100.00
65173;BME280;51758;52.218;5.172;2022-12-20T07:11:54;100837.22;;;10.00;100.00
65173;BME280;51758;52.218;5.172;2022-12-20T07:14:23;100829.91;;;9.96;100.00
65173;BME280;51758;52.218;5.172;2022-12-20T07:16:51;100842.59;;;9.99;100.00
65173;BME280;51758;52.218;5.172;2022-12-20T07:19:19;100841.13;;;9.96;100.00
65173;BME280;51758;52.218;5.172;2022-12-20T07:21:48;100839.44;;;10.03;100.00
65173;BME280;51758;52.218;5.172;2022-12-20T07:24:15;100834.06;;;10.05;100.00
65173;BME280;51758;52.218;5.172;2022-12-20T07:26:43;100830.16;;;10.01;100.00
65173;BME280;51758;52.218;5.172;2022-12-20T07:29:12;100838.47;;;10.04;100.00
65173;BME280;51758;52.218;5.172;2022-12-20T07:31:43;100828.19;;;10.03;100.00
65173;BME280;51758;52.218;5.172;2022-12-20T07:34:11;100841.06;;;10.04;100.00
65173;BME280;51758;52.218;5.172;2022-12-20T07:36:39;100837.81;;;10.02;100.00
65173;BME280;51758;52.218;5.172;2022-12-20T07:39:07;100840.91;;;10.06;100.00
65173;BME280;51758;52.218;5.172;2022-12-20T07:41:35;100846.59;;;10.10;100.00
65173;BME280;51758;52.218;5.172;2022-12-20T07:44:03;100849.03;;;10.11;100.00
65173;BME280;51758;52.218;5.172;2022-12-20T07:46:31;100851.41;;;10.21;100.00
65173;BME280;51758;52.218;5.172;2022-12-20T07:49:00;100848.31;;;10.17;100.00
65173;BME280;51758;52.218;5.172;2022-12-20T07:51:36;100842.44;;;10.15;100.00
65173;BME280;51758;52.218;5.172;2022-12-20T07:54:08;100844.88;;;10.17;100.00
65173;BME280;51758;52.218;5.172;2022-12-20T07:56:41;100854.41;;;10.10;100.00
65173;BME280;51758;52.218;5.172;2022-12-20T07:59:10;100854.59;;;10.08;100.00
65173;BME280;51758;52.218;5.172;2022-12-20T08:01:41;100854.59;;;10.08;100.00
65173;BME280;51758;52.218;5.172;2022-12-20T08:04:14;100853.63;;;10.01;100.00
65173;BME280;51758;52.218;5.172;2022-12-20T08:06:43;100849.13;;;9.95;100.00
65173;BME280;51758;52.218;5.172;2022-12-20T08:09:12;100851.44;;;9.90;100.00
65173;BME280;51758;52.218;5.172;2022-12-20T08:11:43;100835.09;;;9.73;100.00
65173;BME280;51758;52.218;5.172;2022-12-20T08:14:12;100841.75;;;9.76;100.00
65173;BME280;51758;52.218;5.172;2022-12-20T08:16:41;100839.84;;;9.69;100.00
65173;BME280;51758;52.218;5.172;2022-12-20T08:19:09;100836.66;;;9.59;100.00
65173;BME280;51758;52.218;5.172;2022-12-20T08:21:38;100830.28;;;9.62;100.00
65173;BME280;51758;52.218;5.172;2022-12-20T08:24:07;100838.59;;;9.57;100.00
65173;BME280;51758;52.218;5.172;2022-12-20T08:26:37;100832.25;;;9.60;100.00
65173;BME280;51758;52.218;5.172;2022-12-20T08:29:05;100840.34;;;9.65;100.00
65173;BME280;51758;52.218;5.172;2022-12-20T08:31:36;100843.19;;;9.55;100.00
65173;BME280;51758;52.218;5.172;2022-12-20T08:34:04;100830.38;;;9.46;100.00
65173;BME280;51758;52.218;5.172;2022-12-20T08:36:32;100842.41;;;9.47;100.00
65173;BME280;51758;52.218;5.172;2022-12-20T08:39:02;100832.81;;;9.47;100.00
65173;BME280;51758;52.218;5.172;2022-12-20T08:41:30;100828.84;;;9.51;100.00
65173;BME280;51758;52.218;5.172;2022-12-20T08:43:58;100815.41;;;9.40;100.00
65173;BME280;51758;52.218;5.172;2022-12-20T08:46:27;100833.63;;;9.48;100.00
65173;BME280;51758;52.218;5.172;2022-12-20T08:48:55;100830.84;;;9.49;100.00
65173;BME280;51758;52.218;5.172;2022-12-20T08:51:23;100786.13;;;9.29;100.00
65173;BME280;51758;52.218;5.172;2022-12-20T08:53:51;100814.19;;;9.50;100.00
65173;BME280;51758;52.218;5.172;2022-12-20T08:56:21;100811.41;;;9.60;100.00
65173;BME280;51758;52.218;5.172;2022-12-20T08:58:48;100834.50;;;9.63;100.00
65173;BME280;51758;52.218;5.172;2022-12-20T09:01:18;100836.13;;;9.64;100.00
65173;BME280;51758;52.218;5.172;2022-12-20T09:03:47;100831.38;;;9.67;100.00
65173;BME280;51758;52.218;5.172;2022-12-20T09:06:17;100832.88;;;9.62;100.00
65173;BME280;51758;52.218;5.172;2022-12-20T09:08:46;100832.59;;;9.57;100.00
65173;BME280;51758;52.218;5.172;2022-12-20T09:11:17;100835.84;;;9.51;100.00
65173;BME280;51758;52.218;5.172;2022-12-20T09:13:49;100843.41;;;9.46;100.00
65173;BME280;51758;52.218;5.172;2022-12-20T09:16:18;100838.81;;;9.48;100.00
65173;BME280;51758;52.218;5.172;2022-12-20T09:18:47;100828.09;;;9.43;100.00
65173;BME280;51758;52.218;5.172;2022-12-20T09:21:16;100836.88;;;9.42;100.00
65173;BME280;51758;52.218;5.172;2022-12-20T09:23:44;100841.81;;;9.37;100.00
65173;BME280;51758;52.218;5.172;2022-12-20T09:26:13;100825.06;;;9.31;100.00
65173;BME280;51758;52.218;5.172;2022-12-20T09:28:43;100822.63;;;9.29;100.00
65173;BME280;51758;52.218;5.172;2022-12-20T09:31:14;100824.56;;;9.27;100.00
65173;BME280;51758;52.218;5.172;2022-12-20T09:33:42;100823.75;;;9.27;100.00
65173;BME280;51758;52.218;5.172;2022-12-20T09:36:12;100823.59;;;9.28;100.00
65173;BME280;51758;52.218;5.172;2022-12-20T09:38:40;100822.94;;;9.26;100.00
65173;BME280;51758;52.218;5.172;2022-12-20T09:41:18;100829.78;;;9.27;100.00
65173;BME280;51758;52.218;5.172;2022-12-20T09:43:48;100830.94;;;9.25;100.00
65173;BME280;51758;52.218;5.172;2022-12-20T09:46:18;100839.22;;;9.28;100.00
65173;BME280;51758;52.218;5.172;2022-12-20T09:48:46;100835.53;;;9.23;100.00
65173;BME280;51758;52.218;5.172;2022-12-20T09:51:26;100831.94;;;9.24;100.00
65173;BME280;51758;52.218;5.172;2022-12-20T09:54:05;100827.72;;;9.23;100.00
65173;BME280;51758;52.218;5.172;2022-12-20T09:56:35;100817.75;;;9.26;100.00
65173;BME280;51758;52.218;5.172;2022-12-20T09:59:08;100815.13;;;9.26;100.00
65173;BME280;51758;52.218;5.172;2022-12-20T10:01:42;100821.81;;;9.29;100.00
65173;BME280;51758;52.218;5.172;2022-12-20T10:04:16;100826.84;;;9.30;100.00
65173;BME280;51758;52.218;5.172;2022-12-20T10:06:53;100831.41;;;9.28;100.00
65173;BME280;51758;52.218;5.172;2022-12-20T10:09:40;100825.06;;;9.31;100.00
65173;BME280;51758;52.218;5.172;2022-12-20T10:12:19;100812.50;;;9.34;100.00
65173;BME280;51758;52.218;5.172;2022-12-20T10:14:52;100818.97;;;9.39;100.00
65173;BME280;51758;52.218;5.172;2022-12-20T10:17:37;100821.59;;;9.39;100.00
65173;BME280;51758;52.218;5.172;2022-12-20T10:20:22;100817.19;;;9.39;100.00
65173;BME280;51758;52.218;5.172;2022-12-20T10:22:57;100821.09;;;9.43;100.00
65173;BME280;51758;52.218;5.172;2022-12-20T10:25:29;100817.16;;;9.47;100.00
65173;BME280;51758;52.218;5.172;2022-12-20T10:28:00;100811.97;;;9.47;100.00
65173;BME280;51758;52.218;5.172;2022-12-20T10:30:31;100804.59;;;9.51;100.00
65173;BME280;51758;52.218;5.172;2022-12-20T10:33:02;100805.94;;;9.47;100.00
65173;BME280;51758;52.218;5.172;2022-12-20T10:35:35;100805.41;;;9.51;100.00
65173;BME280;51758;52.218;5.172;2022-12-20T10:38:06;100808.00;;;9.51;100.00
65173;BME280;51758;52.218;5.172;2022-12-20T10:40:40;100810.00;;;9.49;100.00
65173;BME280;51758;52.218;5.172;2022-12-20T10:43:41;100788.50;;;9.47;100.00
65173;BME280;51758;52.218;5.172;2022-12-20T10:46:10;100786.72;;;9.48;100.00
65173;BME280;51758;52.218;5.172;2022-12-20T10:48:42;100749.19;;;9.26;100.00
65173;BME280;51758;52.218;5.172;2022-12-20T10:51:15;100788.94;;;9.51;100.00
65173;BME280;51758;52.218;5.172;2022-12-20T10:53:56;100786.53;;;9.49;100.00
65173;BME280;51758;52.218;5.172;2022-12-20T10:56:26;100792.03;;;9.54;100.00
65173;BME280;51758;52.218;5.172;2022-12-20T10:58:57;100793.34;;;9.50;100.00
65173;BME280;51758;52.218;5.172;2022-12-20T11:01:28;100778.06;;;9.47;100.00
65173;BME280;51758;52.218;5.172;2022-12-20T11:04:00;100777.38;;;9.53;100.00
65173;BME280;51758;52.218;5.172;2022-12-20T11:06:40;100775.41;;;9.55;100.00
65173;BME280;51758;52.218;5.172;2022-12-20T11:09:28;100778.66;;;9.57;100.00
65173;BME280;51758;52.218;5.172;2022-12-20T11:12:01;100775.75;;;9.52;100.00
65173;BME280;51758;52.218;5.172;2022-12-20T11:14:31;100780.97;;;9.52;100.00
65173;BME280;51758;52.218;5.172;2022-12-20T11:17:18;100781.28;;;9.57;100.00
65173;BME280;51758;52.218;5.172;2022-12-20T11:20:00;100774.50;;;9.48;100.00
65173;BME280;51758;52.218;5.172;2022-12-20T11:22:42;100775.06;;;9.58;100.00
65173;BME280;51758;52.218;5.172;2022-12-20T11:25:27;100771.81;;;9.56;100.00
65173;BME280;51758;52.218;5.172;2022-12-20T11:28:09;100779.75;;;9.63;100.00
65173;BME280;51758;52.218;5.172;2022-12-20T11:30:45;100760.81;;;9.46;100.00
65173;BME280;51758;52.218;5.172;2022-12-20T11:33:30;100779.00;;;9.54;100.00
65173;BME280;51758;52.218;5.172;2022-12-20T11:36:09;100771.16;;;9.62;100.00
65173;BME280;51758;52.218;5.172;2022-12-20T11:38:43;100773.63;;;9.56;100.00
65173;BME280;51758;52.218;5.172;2022-12-20T11:41:20;100768.22;;;9.57;100.00
65173;BME280;51758;52.218;5.172;2022-12-20T11:44:01;100766.09;;;9.61;100.00
65173;BME280;51758;52.218;5.172;2022-12-20T11:47:25;100765.28;;;9.60;100.00
65173;BME280;51758;52.218;5.172;2022-12-20T11:50:07;100766.53;;;9.64;100.00
65173;BME280;51758;52.218;5.172;2022-12-20T11:52:46;100768.16;;;9.65;100.00
65173;BME280;51758;52.218;5.172;2022-12-20T11:55:18;100769.16;;;9.64;100.00
65173;BME280;51758;52.218;5.172;2022-12-20T11:57:55;100770.78;;;9.65;100.00
65173;BME280;51758;52.218;5.172;2022-12-20T12:00:49;100769.31;;;9.63;100.00
65173;BME280;51758;52.218;5.172;2022-12-20T12:03:25;100762.31;;;9.63;100.00
65173;BME280;51758;52.218;5.172;2022-12-20T12:05:58;100767.19;;;9.66;100.00
65173;BME280;51758;52.218;5.172;2022-12-20T12:08:35;100761.16;;;9.66;100.00
65173;BME280;51758;52.218;5.172;2022-12-20T12:11:11;100765.06;;;9.70;100.00
65173;BME280;51758;52.218;5.172;2022-12-20T12:14:02;100765.72;;;9.64;100.00
65173;BME280;51758;52.218;5.172;2022-12-20T12:16:34;100767.00;;;9.68;100.00
65173;BME280;51758;52.218;5.172;2022-12-20T12:19:07;100764.75;;;9.65;100.00
65173;BME280;51758;52.218;5.172;2022-12-20T12:21:40;100752.34;;;9.67;100.00
65173;BME280;51758;52.218;5.172;2022-12-20T12:24:18;100760.00;;;9.68;100.00
65173;BME280;51758;52.218;5.172;2022-12-20T12:26:48;100753.81;;;9.69;100.00
65173;BME280;51758;52.218;5.172;2022-12-20T12:29:17;100753.97;;;9.68;100.00
65173;BME280;51758;52.218;5.172;2022-12-20T12:31:52;100752.69;;;9.64;100.00
65173;BME280;51758;52.218;5.172;2022-12-20T12:34:31;100718.31;;;9.46;100.00
65173;BME280;51758;52.218;5.172;2022-12-20T12:40:10;100720.03;;;9.53;100.00
65173;BME280;51758;52.218;5.172;2022-12-20T12:43:01;100748.94;;;9.66;100.00
65173;BME280;51758;52.218;5.172;2022-12-20T12:45:36;100753.16;;;9.67;100.00
65173;BME280;51758;52.218;5.172;2022-12-20T12:48:10;100758.84;;;9.71;100.00
65173;BME280;51758;52.218;5.172;2022-12-20T12:50:43;100756.94;;;9.65;100.00
65173;BME280;51758;52.218;5.172;2022-12-20T12:53:15;100754.97;;;9.67;100.00
65173;BME280;51758;52.218;5.172;2022-12-20T12:55:46;100748.94;;;9.66;100.00
65173;BME280;51758;52.218;5.172;2022-12-20T12:58:30;100761.72;;;9.76;100.00
65173;BME280;51758;52.218;5.172;2022-12-20T13:01:00;100761.63;;;9.69;100.00
65173;BME280;51758;52.218;5.172;2022-12-20T13:03:44;100756.06;;;9.73;100.00
65173;BME280;51758;52.218;5.172;2022-12-20T13:06:41;100764.72;;;9.73;100.00
65173;BME280;51758;52.218;5.172;2022-12-20T13:09:19;100765.78;;;9.79;100.00
65173;BME280;51758;52.218;5.172;2022-12-20T13:11:51;100758.84;;;9.71;100.00
65173;BME280;51758;52.218;5.172;2022-12-20T13:14:48;100753.34;;;9.66;100.00
65173;BME280;51758;52.218;5.172;2022-12-20T13:17:45;100760.66;;;9.70;100.00